sensor_id;sensor_type;location;lat;lon;timestamp;P1;durP1;ratioP1;P2;durP2;ratioP2
53939;SDS011;39850;43.324;21.916;2022-07-01T00:21:21;10.0;;;8.0;;
53939;SDS011;39850;43.324;21.916;2022-07-01T00:25:59;10.0;;;8.0;;
53939;SDS011;39850;43.324;21.916;2022-07-01T00:30:38;10.0;;;8.0;;
53939;SDS011;39850;43.324;21.916;2022-07-01T00:35:15;10.0;;;8.0;;
53939;SDS011;39850;43.324;21.916;2022-07-01T00:39:51;10.0;;;8.0;;
53939;SDS011;39850;43.324;21.916;2022-07-01T00:44:29;10.0;;;8.0;;
53939;SDS011;39850;43.324;21.916;2022-07-01T00:49:07;10.0;;;8.0;;
53939;SDS011;39850;43.324;21.916;2022-07-01T00:53:43;10.0;;;8.0;;
53939;SDS011;39850;43.324;21.916;2022-07-01T00:58:21;10.0;;;8.0;;
53939;SDS011;39850;43.324;21.916;2022-07-01T01:02:58;9.0;;;8.0;;
53939;SDS011;39850;43.324;21.916;2022-07-01T01:07:36;9.0;;;8.0;;
53939;SDS011;39850;43.324;21.916;2022-07-01T01:40:15;9.0;;;8.0;;
53939;SDS011;39850;43.324;21.916;2022-07-01T01:44:52;9.0;;;8.0;;
53939;SDS011;39850;43.324;21.916;2022-07-01T01:49:29;9.0;;;8.0;;
53939;SDS011;39850;43.324;21.916;2022-07-01T01:54:06;9.0;;;8.0;;
53939;SDS011;39850;43.324;21.916;2022-07-01T01:58:43;9.0;;;8.0;;
53939;SDS011;39850;43.324;21.916;2022-07-01T02:03:19;9.0;;;7.0;;
53939;SDS011;39850;43.324;21.916;2022-07-01T02:07:56;9.0;;;7.0;;
53939;SDS011;39850;43.324;21.916;2022-07-01T02:12:32;9.0;;;7.0;;
53939;SDS011;39850;43.324;21.916;2022-07-01T02:17:09;9.0;;;7.0;;
53939;SDS011;39850;43.324;21.916;2022-07-01T02:21:46;9.0;;;7.0;;
53939;SDS011;39850;43.324;21.916;2022-07-01T02:26:22;9.0;;;7.0;;
53939;SDS011;39850;43.324;21.916;2022-07-01T03:03:17;9.0;;;7.0;;
53939;SDS011;39850;43.324;21.916;2022-07-01T03:07:54;9.0;;;7.0;;
53939;SDS011;39850;43.324;21.916;2022-07-01T03:12:30;9.0;;;8.0;;
53939;SDS011;39850;43.324;21.916;2022-07-01T03:17:07;9.0;;;8.0;;
53939;SDS011;39850;43.324;21.916;2022-07-01T03:21:43;9.0;;;7.0;;
53939;SDS011;39850;43.324;21.916;2022-07-01T03:26:20;9.0;;;7.0;;
53939;SDS011;39850;43.324;21.916;2022-07-01T03:30:57;8.0;;;8.0;;
53939;SDS011;39850;43.324;21.916;2022-07-01T03:35:34;8.0;;;8.0;;
53939;SDS011;39850;43.324;21.916;2022-07-01T03:40:11;8.0;;;7.0;;
53939;SDS011;39850;43.324;21.916;2022-07-01T03:44:48;8.0;;;7.0;;
53939;SDS011;39850;43.324;21.916;2022-07-01T04:21:45;10.0;;;8.0;;
53939;SDS011;39850;43.324;21.916;2022-07-01T04:26:23;10.0;;;8.0;;
53939;SDS011;39850;43.324;21.916;2022-07-01T04:31:01;10.0;;;8.0;;
53939;SDS011;39850;43.324;21.916;2022-07-01T04:35:37;10.0;;;8.0;;
53939;SDS011;39850;43.324;21.916;2022-07-01T04:40:13;10.0;;;8.0;;
53939;SDS011;39850;43.324;21.916;2022-07-01T04:44:49;10.0;;;8.0;;
53939;SDS011;39850;43.324;21.916;2022-07-01T04:49:26;10.0;;;8.0;;
53939;SDS011;39850;43.324;21.916;2022-07-01T04:54:07;10.0;;;8.0;;
53939;SDS011;39850;43.324;21.916;2022-07-01T04:58:44;10.0;;;8.0;;
53939;SDS011;39850;43.324;21.916;2022-07-01T05:03:20;10.0;;;8.0;;
53939;SDS011;39850;43.324;21.916;2022-07-01T05:07:57;10.0;;;8.0;;
53939;SDS011;39850;43.324;21.916;2022-07-01T05:40:13;11.0;;;8.0;;
53939;SDS011;39850;43.324;21.916;2022-07-01T05:44:49;11.0;;;8.0;;
53939;SDS011;39850;43.324;21.916;2022-07-01T05:49:25;11.0;;;8.0;;
53939;SDS011;39850;43.324;21.916;2022-07-01T05:54:02;10.0;;;8.0;;
53939;SDS011;39850;43.324;21.916;2022-07-01T05:58:38;10.0;;;8.0;;
53939;SDS011;39850;43.324;21.916;2022-07-01T06:03:15;10.0;;;7.0;;
53939;SDS011;39850;43.324;21.916;2022-07-01T06:07:52;10.0;;;7.0;;
53939;SDS011;39850;43.324;21.916;2022-07-01T06:12:28;10.0;;;7.0;;
53939;SDS011;39850;43.324;21.916;2022-07-01T06:17:05;10.0;;;7.0;;
53939;SDS011;39850;43.324;21.916;2022-07-01T06:21:42;10.0;;;7.0;;
53939;SDS011;39850;43.324;21.916;2022-07-01T06:26:18;10.0;;;7.0;;
53939;SDS011;39850;43.324;21.916;2022-07-01T07:03:18;10.0;;;7.0;;
53939;SDS011;39850;43.324;21.916;2022-07-01T07:07:55;10.0;;;7.0;;
53939;SDS011;39850;43.324;21.916;2022-07-01T07:12:32;10.0;;;7.0;;
53939;SDS011;39850;43.324;21.916;2022-07-01T07:17:08;10.0;;;7.0;;
53939;SDS011;39850;43.324;21.916;2022-07-01T07:21:45;10.0;;;7.0;;
53939;SDS011;39850;43.324;21.916;2022-07-01T07:26:21;10.0;;;7.0;;
53939;SDS011;39850;43.324;21.916;2022-07-01T07:30:58;10.0;;;8.0;;
53939;SDS011;39850;43.324;21.916;2022-07-01T07:35:35;10.0;;;8.0;;
53939;SDS011;39850;43.324;21.916;2022-07-01T07:40:14;10.0;;;8.0;;
53939;SDS011;39850;43.324;21.916;2022-07-01T07:44:50;10.0;;;8.0;;
53939;SDS011;39850;43.324;21.916;2022-07-01T07:49:27;10.0;;;8.0;;
53939;SDS011;39850;43.324;21.916;2022-07-01T08:21:40;9.0;;;7.0;;
53939;SDS011;39850;43.324;21.916;2022-07-01T08:26:17;9.0;;;7.0;;
53939;SDS011;39850;43.324;21.916;2022-07-01T08:30:53;9.0;;;7.0;;
53939;SDS011;39850;43.324;21.916;2022-07-01T08:35:30;9.0;;;7.0;;
53939;SDS011;39850;43.324;21.916;2022-07-01T08:40:09;9.0;;;7.0;;
53939;SDS011;39850;43.324;21.916;2022-07-01T08:44:47;9.0;;;7.0;;
53939;SDS011;39850;43.324;21.916;2022-07-01T08:49:24;9.0;;;7.0;;
53939;SDS011;39850;43.324;21.916;2022-07-01T08:54:02;10.0;;;7.0;;
53939;SDS011;39850;43.324;21.916;2022-07-01T08:58:39;10.0;;;7.0;;
53939;SDS011;39850;43.324;21.916;2022-07-01T09:03:22;10.0;;;7.0;;
53939;SDS011;39850;43.324;21.916;2022-07-01T09:08:04;10.0;;;7.0;;
53939;SDS011;39850;43.324;21.916;2022-07-01T09:41:04;9.0;;;7.0;;
53939;SDS011;39850;43.324;21.916;2022-07-01T09:45:58;9.0;;;7.0;;
53939;SDS011;39850;43.324;21.916;2022-07-01T09:50:35;10.0;;;8.0;;
53939;SDS011;39850;43.324;21.916;2022-07-01T09:55:12;10.0;;;8.0;;
53939;SDS011;39850;43.324;21.916;2022-07-01T09:59:50;10.0;;;8.0;;
53939;SDS011;39850;43.324;21.916;2022-07-01T10:04:32;10.0;;;9.0;;
53939;SDS011;39850;43.324;21.916;2022-07-01T10:09:56;10.0;;;9.0;;
53939;SDS011;39850;43.324;21.916;2022-07-01T10:14:51;12.0;;;10.0;;
53939;SDS011;39850;43.324;21.916;2022-07-01T10:19:31;12.0;;;10.0;;
53939;SDS011;39850;43.324;21.916;2022-07-01T10:24:17;13.0;;;12.0;;
53939;SDS011;39850;43.324;21.916;2022-07-01T10:28:55;13.0;;;12.0;;
53939;SDS011;39850;43.324;21.916;2022-07-01T11:10:44;8.0;;;7.0;;
53939;SDS011;39850;43.324;21.916;2022-07-01T11:15:28;8.0;;;7.0;;
53939;SDS011;39850;43.324;21.916;2022-07-01T11:20:09;8.0;;;7.0;;
53939;SDS011;39850;43.324;21.916;2022-07-01T11:24:54;8.0;;;7.0;;
53939;SDS011;39850;43.324;21.916;2022-07-01T11:29:34;8.0;;;7.0;;
53939;SDS011;39850;43.324;21.916;2022-07-01T11:34:17;8.0;;;7.0;;
53939;SDS011;39850;43.324;21.916;2022-07-01T11:38:56;8.0;;;7.0;;
53939;SDS011;39850;43.324;21.916;2022-07-01T11:43:38;8.0;;;7.0;;
53939;SDS011;39850;43.324;21.916;2022-07-01T11:48:42;8.0;;;7.0;;
53939;SDS011;39850;43.324;21.916;2022-07-01T12:21:22;8.0;;;6.0;;
53939;SDS011;39850;43.324;21.916;2022-07-01T12:25:59;8.0;;;6.0;;
53939;SDS011;39850;43.324;21.916;2022-07-01T12:30:36;8.0;;;6.0;;
53939;SDS011;39850;43.324;21.916;2022-07-01T12:35:12;8.0;;;6.0;;
53939;SDS011;39850;43.324;21.916;2022-07-01T12:39:52;8.0;;;6.0;;
53939;SDS011;39850;43.324;21.916;2022-07-01T12:44:32;8.0;;;6.0;;
53939;SDS011;39850;43.324;21.916;2022-07-01T12:49:22;8.0;;;6.0;;
53939;SDS011;39850;43.324;21.916;2022-07-01T12:54:01;8.0;;;6.0;;
53939;SDS011;39850;43.324;21.916;2022-07-01T12:58:37;8.0;;;6.0;;
53939;SDS011;39850;43.324;21.916;2022-07-01T13:03:19;8.0;;;6.0;;
53939;SDS011;39850;43.324;21.916;2022-07-01T13:08:02;8.0;;;6.0;;
53939;SDS011;39850;43.324;21.916;2022-07-01T13:44:59;8.0;;;6.0;;
53939;SDS011;39850;43.324;21.916;2022-07-01T13:49:36;8.0;;;6.0;;
53939;SDS011;39850;43.324;21.916;2022-07-01T13:54:13;8.0;;;6.0;;
53939;SDS011;39850;43.324;21.916;2022-07-01T13:58:49;8.0;;;6.0;;
53939;SDS011;39850;43.324;21.916;2022-07-01T14:03:25;8.0;;;6.0;;
53939;SDS011;39850;43.324;21.916;2022-07-01T14:08:01;8.0;;;6.0;;
53939;SDS011;39850;43.324;21.916;2022-07-01T14:12:38;8.0;;;6.0;;
53939;SDS011;39850;43.324;21.916;2022-07-01T14:17:14;8.0;;;6.0;;
53939;SDS011;39850;43.324;21.916;2022-07-01T14:21:51;9.0;;;7.0;;
53939;SDS011;39850;43.324;21.916;2022-07-01T14:26:27;9.0;;;7.0;;
53939;SDS011;39850;43.324;21.916;2022-07-01T14:31:04;9.0;;;7.0;;
53939;SDS011;39850;43.324;21.916;2022-07-01T15:03:24;7.0;;;6.0;;
53939;SDS011;39850;43.324;21.916;2022-07-01T15:08:00;7.0;;;6.0;;
53939;SDS011;39850;43.324;21.916;2022-07-01T15:12:37;8.0;;;6.0;;
53939;SDS011;39850;43.324;21.916;2022-07-01T15:17:14;8.0;;;6.0;;
53939;SDS011;39850;43.324;21.916;2022-07-01T15:21:50;7.0;;;6.0;;
53939;SDS011;39850;43.324;21.916;2022-07-01T15:26:27;7.0;;;6.0;;
53939;SDS011;39850;43.324;21.916;2022-07-01T15:31:03;7.0;;;6.0;;
53939;SDS011;39850;43.324;21.916;2022-07-01T15:35:40;8.0;;;6.0;;
53939;SDS011;39850;43.324;21.916;2022-07-01T15:40:17;8.0;;;6.0;;
53939;SDS011;39850;43.324;21.916;2022-07-01T15:44:53;7.0;;;6.0;;
53939;SDS011;39850;43.324;21.916;2022-07-01T15:49:29;7.0;;;6.0;;
53939;SDS011;39850;43.324;21.916;2022-07-01T16:22:05;8.0;;;6.0;;
53939;SDS011;39850;43.324;21.916;2022-07-01T16:26:43;8.0;;;6.0;;
53939;SDS011;39850;43.324;21.916;2022-07-01T16:31:22;8.0;;;6.0;;
53939;SDS011;39850;43.324;21.916;2022-07-01T16:36:13;8.0;;;6.0;;
53939;SDS011;39850;43.324;21.916;2022-07-01T16:41:13;8.0;;;6.0;;
53939;SDS011;39850;43.324;21.916;2022-07-01T16:46:17;8.0;;;6.0;;
53939;SDS011;39850;43.324;21.916;2022-07-01T16:51:07;8.0;;;6.0;;
53939;SDS011;39850;43.324;21.916;2022-07-01T16:55:47;8.0;;;6.0;;
53939;SDS011;39850;43.324;21.916;2022-07-01T17:00:27;8.0;;;6.0;;
53939;SDS011;39850;43.324;21.916;2022-07-01T17:05:07;7.0;;;6.0;;
53939;SDS011;39850;43.324;21.916;2022-07-01T17:09:46;7.0;;;6.0;;
53939;SDS011;39850;43.324;21.916;2022-07-01T17:43:05;9.0;;;7.0;;
53939;SDS011;39850;43.324;21.916;2022-07-01T17:47:43;9.0;;;7.0;;
53939;SDS011;39850;43.324;21.916;2022-07-01T17:52:21;9.0;;;7.0;;
53939;SDS011;39850;43.324;21.916;2022-07-01T17:57:00;9.0;;;7.0;;
53939;SDS011;39850;43.324;21.916;2022-07-01T18:01:38;9.0;;;7.0;;
53939;SDS011;39850;43.324;21.916;2022-07-01T18:06:17;9.0;;;7.0;;
53939;SDS011;39850;43.324;21.916;2022-07-01T18:11:04;9.0;;;7.0;;
53939;SDS011;39850;43.324;21.916;2022-07-01T18:16:08;10.0;;;7.0;;
53939;SDS011;39850;43.324;21.916;2022-07-01T18:20:55;10.0;;;7.0;;
53939;SDS011;39850;43.324;21.916;2022-07-01T18:25:37;10.0;;;7.0;;
53939;SDS011;39850;43.324;21.916;2022-07-01T18:30:24;10.0;;;7.0;;
53939;SDS011;39850;43.324;21.916;2022-07-01T19:02:48;33.0;;;33.0;;
53939;SDS011;39850;43.324;21.916;2022-07-01T19:07:24;33.0;;;33.0;;
53939;SDS011;39850;43.324;21.916;2022-07-01T19:12:00;33.0;;;33.0;;
53939;SDS011;39850;43.324;21.916;2022-07-01T19:16:37;24.0;;;23.0;;
53939;SDS011;39850;43.324;21.916;2022-07-01T19:21:13;24.0;;;23.0;;
53939;SDS011;39850;43.324;21.916;2022-07-01T19:25:49;14.0;;;13.0;;
53939;SDS011;39850;43.324;21.916;2022-07-01T19:30:25;14.0;;;13.0;;
53939;SDS011;39850;43.324;21.916;2022-07-01T19:35:01;14.0;;;12.0;;
53939;SDS011;39850;43.324;21.916;2022-07-01T19:39:40;14.0;;;12.0;;
53939;SDS011;39850;43.324;21.916;2022-07-01T19:44:17;13.0;;;10.0;;
53939;SDS011;39850;43.324;21.916;2022-07-01T19:48:54;13.0;;;10.0;;
53939;SDS011;39850;43.324;21.916;2022-07-01T20:35:07;13.0;;;9.0;;
53939;SDS011;39850;43.324;21.916;2022-07-01T20:39:44;13.0;;;9.0;;
53939;SDS011;39850;43.324;21.916;2022-07-01T20:44:20;12.0;;;9.0;;
53939;SDS011;39850;43.324;21.916;2022-07-01T20:48:57;12.0;;;9.0;;
53939;SDS011;39850;43.324;21.916;2022-07-01T20:53:34;12.0;;;9.0;;
53939;SDS011;39850;43.324;21.916;2022-07-01T20:58:12;12.0;;;9.0;;
53939;SDS011;39850;43.324;21.916;2022-07-01T21:02:48;10.0;;;9.0;;
53939;SDS011;39850;43.324;21.916;2022-07-01T21:07:24;10.0;;;9.0;;
53939;SDS011;39850;43.324;21.916;2022-07-01T21:12:01;10.0;;;9.0;;
53939;SDS011;39850;43.324;21.916;2022-07-01T21:44:30;10.0;;;8.0;;
53939;SDS011;39850;43.324;21.916;2022-07-01T21:49:06;10.0;;;8.0;;
53939;SDS011;39850;43.324;21.916;2022-07-01T21:53:45;10.0;;;8.0;;
53939;SDS011;39850;43.324;21.916;2022-07-01T21:58:27;10.0;;;8.0;;
53939;SDS011;39850;43.324;21.916;2022-07-01T22:03:11;11.0;;;9.0;;
53939;SDS011;39850;43.324;21.916;2022-07-01T22:07:51;11.0;;;9.0;;
53939;SDS011;39850;43.324;21.916;2022-07-01T22:12:32;11.0;;;9.0;;
53939;SDS011;39850;43.324;21.916;2022-07-01T22:17:26;11.0;;;10.0;;
53939;SDS011;39850;43.324;21.916;2022-07-01T22:22:27;11.0;;;10.0;;
53939;SDS011;39850;43.324;21.916;2022-07-01T22:27:15;11.0;;;10.0;;
53939;SDS011;39850;43.324;21.916;2022-07-01T22:31:54;11.0;;;10.0;;
53939;SDS011;39850;43.324;21.916;2022-07-01T23:17:17;11.0;;;10.0;;
53939;SDS011;39850;43.324;21.916;2022-07-01T23:22:02;11.0;;;10.0;;
53939;SDS011;39850;43.324;21.916;2022-07-01T23:26:47;10.0;;;10.0;;
53939;SDS011;39850;43.324;21.916;2022-07-01T23:31:37;10.0;;;10.0;;
53939;SDS011;39850;43.324;21.916;2022-07-01T23:36:16;10.0;;;10.0;;
53939;SDS011;39850;43.324;21.916;2022-07-01T23:40:56;10.0;;;10.0;;
53939;SDS011;39850;43.324;21.916;2022-07-01T23:45:35;10.0;;;9.0;;
53939;SDS011;39850;43.324;21.916;2022-07-01T23:50:12;10.0;;;9.0;;
